Time;durP1;ratioP1;P1;durP2;ratioP2;P2;SDS_P1;SDS_P2;PMS_P1;PMS_P2;Temp;Humidity;BMP_temperature;BMP_pressure;BME280_temperature;BME280_humidity;BME280_pressure;Samples;Min_cycle;Max_cycle;Signal;HPM_P1;HPM_P2
2023/11/08 00:00:05;;;;;;;9.20;2.00;;;6.50;99.90;;;;;;5057812;28;20086;-77
2023/11/08 00:02:30;;;;;;;3.50;1.63;;;6.40;99.90;;;;;;5056267;28;20540;-77
2023/11/08 00:04:56;;;;;;;5.23;1.97;;;6.30;99.90;;;;;;5056323;28;20070;-78
2023/11/08 00:07:21;;;;;;;4.60;1.53;;;6.30;99.90;;;;;;5055263;28;21457;-78
2023/11/08 00:09:47;;;;;;;3.73;1.70;;;6.30;99.90;;;;;;5057314;28;20024;-78
2023/11/08 00:12:12;;;;;;;5.67;2.07;;;6.20;99.90;;;;;;5057424;28;20502;-77
2023/11/08 00:14:38;;;;;;;2.80;1.80;;;6.10;99.90;;;;;;5057031;28;20277;-77
2023/11/08 00:17:03;;;;;;;6.00;2.10;;;6.10;99.90;;;;;;5055782;28;20040;-78
2023/11/08 00:19:29;;;;;;;3.23;1.80;;;6.00;99.90;;;;;;5057281;28;20021;-77
2023/11/08 00:21:58;;;;;;;3.60;2.00;;;6.00;99.90;;;;;;5057051;28;20013;-78
2023/11/08 00:24:25;;;;;;;4.97;1.90;;;5.90;99.90;;;;;;5056914;28;20372;-78
2023/11/08 00:26:50;;;;;;;3.37;1.50;;;5.90;99.90;;;;;;5056323;28;20033;-77
2023/11/08 00:29:16;;;;;;;4.17;2.00;;;5.90;99.90;;;;;;5056001;28;20398;-77
2023/11/08 00:31:41;;;;;;;2.63;1.50;;;5.80;99.90;;;;;;5056486;28;20032;-77
2023/11/08 00:34:08;;;;;;;3.60;1.70;;;5.70;99.90;;;;;;5056472;28;20059;-78
2023/11/08 00:36:33;;;;;;;3.63;1.90;;;5.70;99.90;;;;;;5055454;28;20040;-78
2023/11/08 00:38:59;;;;;;;4.63;2.00;;;5.60;99.90;;;;;;5055882;28;20028;-78
2023/11/08 00:41:25;;;;;;;4.93;1.83;;;5.60;99.90;;;;;;5056890;28;20035;-77
2023/11/08 00:43:55;;;;;;;5.57;2.10;;;5.60;99.90;;;;;;5055837;28;20458;-77
2023/11/08 00:46:22;;;;;;;4.43;1.80;;;5.50;99.90;;;;;;5055458;28;20021;-77
2023/11/08 00:48:47;;;;;;;6.13;1.80;;;5.50;99.90;;;;;;5056159;28;21013;-78
2023/11/08 00:51:13;;;;;;;3.90;1.70;;;5.50;99.90;;;;;;5055804;28;20016;-78
2023/11/08 00:53:39;;;;;;;5.70;1.93;;;5.50;99.90;;;;;;5056643;28;20792;-77
2023/11/08 00:56:05;;;;;;;5.10;1.63;;;5.50;99.90;;;;;;5055694;28;20042;-77
2023/11/08 00:58:31;;;;;;;4.70;2.00;;;5.40;99.90;;;;;;5056721;28;20041;-78
2023/11/08 01:00:56;;;;;;;7.93;1.77;;;5.40;99.90;;;;;;5056358;28;20028;-76
2023/11/08 01:03:22;;;;;;;5.57;1.90;;;5.40;99.90;;;;;;5057298;28;20173;-77
2023/11/08 01:05:47;;;;;;;3.67;1.70;;;5.40;99.90;;;;;;5055674;28;20109;-77
2023/11/08 01:08:14;;;;;;;3.70;1.50;;;5.40;99.90;;;;;;5054872;28;20021;-77
2023/11/08 01:10:43;;;;;;;4.97;1.50;;;5.40;99.90;;;;;;5056817;28;20055;-77
2023/11/08 01:13:09;;;;;;;6.23;1.73;;;5.30;99.90;;;;;;5055255;28;20029;-77
2023/11/08 01:15:39;;;;;;;7.17;1.50;;;5.30;99.90;;;;;;5060002;28;20025;-77
2023/11/08 01:18:05;;;;;;;4.03;1.50;;;5.30;99.90;;;;;;5061062;28;20387;-77
2023/11/08 01:20:30;;;;;;;3.63;1.40;;;5.30;99.90;;;;;;5061372;28;20037;-77
2023/11/08 01:22:58;;;;;;;3.17;1.50;;;5.30;99.90;;;;;;5059120;28;20043;-77
2023/11/08 01:25:24;;;;;;;6.27;1.70;;;5.30;99.90;;;;;;5058021;28;20065;-78
2023/11/08 01:27:49;;;;;;;4.20;1.30;;;5.30;99.90;;;;;;5059243;28;20099;-78
2023/11/08 01:30:15;;;;;;;4.53;1.43;;;5.40;99.90;;;;;;5059720;28;20044;-78
2023/11/08 01:32:40;;;;;;;3.83;1.50;;;5.30;99.90;;;;;;5060888;28;20123;-77
2023/11/08 01:35:06;;;;;;;4.03;1.50;;;5.40;99.90;;;;;;5059750;28;20024;-77
2023/11/08 01:37:33;;;;;;;3.47;1.50;;;5.40;99.90;;;;;;5060075;28;20036;-78
2023/11/08 01:39:59;;;;;;;3.03;1.53;;;5.40;99.90;;;;;;5059769;28;20028;-77
2023/11/08 01:42:25;;;;;;;3.97;1.37;;;5.50;99.90;;;;;;5059918;28;20024;-77
2023/11/08 01:44:50;;;;;;;2.50;1.43;;;5.40;99.90;;;;;;5059278;28;20033;-77
2023/11/08 01:47:17;;;;;;;3.50;1.93;;;5.50;99.90;;;;;;5058164;28;20115;-78
2023/11/08 01:49:43;;;;;;;2.40;1.10;;;5.50;99.90;;;;;;5060911;28;20020;-77
2023/11/08 01:52:12;;;;;;;5.43;1.40;;;5.50;99.90;;;;;;5065398;28;20033;-78
2023/11/08 01:54:43;;;;;;;6.87;1.73;;;5.50;99.90;;;;;;5057908;28;20677;-78
2023/11/08 01:57:08;;;;;;;4.30;1.37;;;5.50;99.90;;;;;;5059732;28;20086;-78
2023/11/08 01:59:35;;;;;;;5.33;1.93;;;5.50;99.90;;;;;;5059375;28;20488;-78
2023/11/08 02:02:01;;;;;;;6.13;1.60;;;5.50;99.90;;;;;;5061034;28;20055;-78
2023/11/08 02:04:28;;;;;;;2.57;1.30;;;5.50;99.90;;;;;;5059441;28;20025;-77
2023/11/08 02:06:54;;;;;;;6.13;1.63;;;5.50;99.90;;;;;;5057936;28;20036;-78
2023/11/08 02:09:20;;;;;;;6.73;1.43;;;5.50;99.90;;;;;;5059622;28;20035;-78
2023/11/08 02:11:46;;;;;;;3.90;1.40;;;5.50;99.90;;;;;;5059110;28;20036;-77
2023/11/08 02:14:11;;;;;;;2.80;1.40;;;5.50;99.90;;;;;;5059418;28;20029;-77
2023/11/08 02:16:37;;;;;;;3.73;1.20;;;5.50;99.90;;;;;;5057654;28;20028;-77
2023/11/08 02:19:05;;;;;;;2.20;1.20;;;5.50;99.90;;;;;;5059884;28;20047;-77
2023/11/08 02:21:30;;;;;;;5.40;1.50;;;5.50;99.90;;;;;;5061206;28;20086;-78
2023/11/08 02:23:57;;;;;;;5.53;1.40;;;5.50;99.90;;;;;;5059962;28;20024;-78
2023/11/08 02:26:22;;;;;;;4.30;1.20;;;5.50;99.90;;;;;;5057419;28;20025;-77
2023/11/08 02:28:48;;;;;;;3.50;1.20;;;5.50;99.90;;;;;;5041073;28;20035;-77
2023/11/08 02:31:14;;;;;;;7.80;2.40;;;5.50;99.90;;;;;;5057659;28;20033;-77
2023/11/08 02:33:40;;;;;;;4.37;1.30;;;5.50;99.90;;;;;;5059924;28;20082;-77
2023/11/08 02:36:06;;;;;;;3.83;1.20;;;5.40;99.90;;;;;;5059076;28;20076;-77
2023/11/08 02:38:31;;;;;;;2.30;1.20;;;5.40;99.90;;;;;;5059530;28;20197;-77
2023/11/08 02:40:57;;;;;;;2.10;1.07;;;5.40;99.90;;;;;;5058281;28;20590;-77
2023/11/08 02:43:24;;;;;;;4.13;1.10;;;5.40;99.90;;;;;;5058819;28;20032;-77
2023/11/08 02:45:50;;;;;;;6.93;2.57;;;5.30;99.90;;;;;;5058706;28;20044;-77
2023/11/08 02:48:15;;;;;;;4.93;1.37;;;5.30;99.90;;;;;;5058788;28;20655;-77
2023/11/08 02:50:41;;;;;;;3.60;1.20;;;5.30;99.90;;;;;;5059034;28;20021;-77
2023/11/08 02:53:07;;;;;;;4.07;1.30;;;5.30;99.90;;;;;;5059601;28;20049;-77
2023/11/08 02:55:34;;;;;;;4.40;1.20;;;5.30;99.90;;;;;;5057343;28;20029;-78
2023/11/08 02:58:00;;;;;;;4.27;1.30;;;5.30;99.90;;;;;;5059622;28;20029;-77
2023/11/08 03:00:26;;;;;;;3.73;1.30;;;5.40;99.90;;;;;;5059010;28;20029;-77
2023/11/08 03:02:51;;;;;;;3.03;1.20;;;5.30;99.90;;;;;;5058407;28;20029;-78
2023/11/08 03:05:21;;;;;;;4.70;1.10;;;5.30;99.90;;;;;;5058203;28;20597;-78
2023/11/08 03:07:48;;;;;;;5.30;1.60;;;5.30;99.90;;;;;;5055620;28;20409;-77
2023/11/08 03:10:17;;;;;;;4.53;1.10;;;5.30;99.90;;;;;;5058503;28;20020;-77
2023/11/08 03:12:46;;;;;;;2.30;1.00;;;5.30;99.90;;;;;;5058681;28;20036;-78
2023/11/08 03:15:14;;;;;;;2.87;1.20;;;5.30;99.90;;;;;;5057971;28;20025;-77
2023/11/08 03:17:42;;;;;;;1.87;1.03;;;5.30;99.90;;;;;;5057426;28;20025;-77
2023/11/08 03:20:08;;;;;;;3.20;1.40;;;5.30;99.90;;;;;;5056263;28;20110;-78
2023/11/08 03:22:35;;;;;;;3.37;1.20;;;5.20;99.90;;;;;;5056181;28;20028;-76
2023/11/08 03:25:02;;;;;;;4.43;1.97;;;5.20;99.90;;;;;;5056883;28;20044;-77
2023/11/08 03:27:28;;;;;;;6.17;1.40;;;5.20;99.90;;;;;;5057732;28;20025;-77
2023/11/08 03:29:54;;;;;;;2.60;0.97;;;5.10;99.90;;;;;;5057596;28;20372;-78
2023/11/08 03:32:22;;;;;;;3.77;1.10;;;5.10;99.90;;;;;;5057980;28;20025;-77
2023/11/08 03:34:48;;;;;;;3.97;1.57;;;5.10;99.90;;;;;;5056739;28;20033;-78
2023/11/08 03:37:13;;;;;;;3.43;1.30;;;5.10;99.90;;;;;;5055670;28;20025;-78
2023/11/08 03:39:39;;;;;;;5.93;1.40;;;5.10;99.90;;;;;;5056661;28;20020;-77
2023/11/08 03:42:05;;;;;;;5.17;1.47;;;5.10;99.90;;;;;;5062138;28;20028;-77
2023/11/08 03:44:30;;;;;;;2.30;1.23;;;5.10;99.90;;;;;;5057192;28;20501;-77
2023/11/08 03:46:56;;;;;;;4.13;1.20;;;5.00;99.90;;;;;;5056552;28;20055;-78
2023/11/08 03:49:21;;;;;;;4.57;1.20;;;5.00;99.90;;;;;;5057545;28;20098;-77
2023/11/08 03:51:47;;;;;;;2.40;1.13;;;5.00;99.90;;;;;;5057546;28;20025;-78
2023/11/08 03:54:12;;;;;;;6.83;1.13;;;5.00;99.90;;;;;;5057941;28;20017;-77
2023/11/08 03:56:38;;;;;;;2.27;1.10;;;5.00;99.90;;;;;;5057649;28;21058;-77
2023/11/08 03:59:04;;;;;;;5.57;1.73;;;4.90;99.90;;;;;;5056824;28;20494;-77
2023/11/08 04:01:30;;;;;;;4.23;1.70;;;4.90;99.90;;;;;;5056392;28;20033;-76
2023/11/08 04:03:56;;;;;;;4.40;2.23;;;5.00;99.90;;;;;;5056941;28;20395;-77
2023/11/08 04:06:21;;;;;;;3.47;1.30;;;4.90;99.90;;;;;;5055290;28;20089;-78
2023/11/08 04:08:47;;;;;;;2.63;1.10;;;4.90;99.90;;;;;;5057516;28;20120;-77
2023/11/08 04:11:13;;;;;;;2.13;1.00;;;4.90;99.90;;;;;;5056167;28;20029;-77
2023/11/08 04:13:39;;;;;;;2.97;1.23;;;5.00;99.90;;;;;;5056427;28;20083;-76
2023/11/08 04:16:05;;;;;;;4.50;1.20;;;5.00;99.90;;;;;;5056458;28;20064;-78
2023/11/08 04:18:30;;;;;;;2.37;1.07;;;5.00;99.90;;;;;;5056079;28;20487;-77
2023/11/08 04:20:56;;;;;;;2.47;1.10;;;5.00;99.90;;;;;;5057773;28;20032;-78
2023/11/08 04:23:21;;;;;;;2.60;1.17;;;5.00;99.90;;;;;;5056271;28;20036;-78
2023/11/08 04:25:49;;;;;;;3.33;1.30;;;5.00;99.90;;;;;;5051866;28;20024;-78
2023/11/08 04:28:16;;;;;;;6.07;1.30;;;5.00;99.90;;;;;;5057144;28;20024;-77
2023/11/08 04:30:41;;;;;;;3.83;1.10;;;5.00;99.90;;;;;;5056865;28;20107;-78
2023/11/08 04:33:07;;;;;;;2.73;0.90;;;5.10;99.90;;;;;;5055261;28;20025;-77
2023/11/08 04:35:33;;;;;;;3.63;1.30;;;5.00;99.90;;;;;;5054465;28;20107;-77
2023/11/08 04:37:59;;;;;;;4.27;1.10;;;5.00;99.90;;;;;;5055103;28;20031;-77
2023/11/08 04:40:24;;;;;;;3.43;1.17;;;5.10;99.90;;;;;;5054865;28;20035;-77
2023/11/08 04:42:50;;;;;;;3.20;1.10;;;5.10;99.90;;;;;;5056384;28;20533;-77
2023/11/08 04:45:15;;;;;;;3.97;1.13;;;5.10;99.90;;;;;;5058873;28;20032;-77
2023/11/08 04:47:41;;;;;;;5.70;1.67;;;5.10;99.90;;;;;;5061595;28;20025;-77
2023/11/08 04:50:07;;;;;;;2.93;0.90;;;5.10;99.90;;;;;;5056567;28;20043;-77
2023/11/08 04:52:33;;;;;;;5.97;1.20;;;5.10;99.90;;;;;;5055731;28;20497;-78
2023/11/08 04:54:59;;;;;;;1.97;1.20;;;5.20;99.90;;;;;;5055528;28;20028;-78
2023/11/08 04:57:25;;;;;;;3.07;1.50;;;5.20;99.90;;;;;;5056216;28;20032;-78
2023/11/08 04:59:51;;;;;;;3.73;1.37;;;5.20;99.90;;;;;;5055629;28;20054;-77
2023/11/08 05:02:20;;;;;;;3.63;1.17;;;5.20;99.90;;;;;;5055408;28;20032;-77
2023/11/08 05:04:49;;;;;;;4.03;1.20;;;5.20;99.90;;;;;;5054851;28;20078;-77
2023/11/08 05:07:15;;;;;;;3.67;1.10;;;5.20;99.90;;;;;;5044307;28;20025;-77
2023/11/08 05:09:43;;;;;;;3.17;1.20;;;5.20;99.90;;;;;;5055011;28;21627;-78
2023/11/08 05:12:09;;;;;;;5.30;1.23;;;5.20;99.90;;;;;;5055814;28;21437;-77
2023/11/08 05:14:35;;;;;;;2.97;1.03;;;5.20;99.90;;;;;;5054956;28;20028;-77
2023/11/08 05:17:01;;;;;;;3.43;1.87;;;5.10;99.90;;;;;;5054143;28;20083;-79
2023/11/08 05:19:27;;;;;;;5.20;1.30;;;5.10;99.90;;;;;;5054694;28;20067;-78
2023/11/08 05:21:53;;;;;;;2.83;1.20;;;5.00;99.90;;;;;;5054094;28;20524;-77
2023/11/08 05:24:21;;;;;;;4.07;1.40;;;5.00;99.90;;;;;;5054146;28;20013;-78
2023/11/08 05:26:47;;;;;;;4.17;1.20;;;5.00;99.90;;;;;;5053290;28;20032;-77
2023/11/08 05:29:13;;;;;;;7.10;2.00;;;5.10;99.90;;;;;;5054111;28;20029;-78
2023/11/08 05:31:38;;;;;;;4.97;1.60;;;5.10;99.90;;;;;;5052049;28;20032;-73
2023/11/08 05:34:04;;;;;;;4.23;1.80;;;5.10;99.90;;;;;;5050294;28;20036;-83
2023/11/08 05:36:30;;;;;;;5.07;2.30;;;5.10;99.90;;;;;;5054386;28;20021;-78
2023/11/08 05:38:57;;;;;;;5.20;2.00;;;5.10;99.90;;;;;;5054313;28;20028;-78
2023/11/08 05:41:22;;;;;;;5.93;2.80;;;5.20;99.90;;;;;;5055153;28;20145;-78
2023/11/08 05:43:50;;;;;;;5.50;1.83;;;5.20;99.90;;;;;;5054575;28;20120;-78
2023/11/08 05:46:16;;;;;;;5.13;2.70;;;5.20;99.90;;;;;;5052539;28;20016;-77
2023/11/08 05:48:42;;;;;;;4.30;2.20;;;5.20;99.90;;;;;;5046269;28;20063;-77
2023/11/08 05:51:07;;;;;;;3.70;1.80;;;5.30;99.90;;;;;;5053953;28;20419;-78
2023/11/08 05:53:33;;;;;;;2.00;1.20;;;5.30;99.90;;;;;;5055974;28;20523;-78
2023/11/08 05:55:59;;;;;;;5.17;1.50;;;5.30;99.90;;;;;;5054256;28;20028;-78
2023/11/08 05:58:25;;;;;;;2.63;1.20;;;5.30;99.90;;;;;;5054922;28;20102;-78
2023/11/08 06:00:51;;;;;;;4.13;1.40;;;5.30;99.90;;;;;;5056363;28;20040;-78
2023/11/08 06:03:16;;;;;;;8.40;1.43;;;5.30;99.90;;;;;;5058362;28;20168;-78
2023/11/08 06:05:42;;;;;;;6.67;1.27;;;5.30;99.90;;;;;;5057796;28;20040;-78
2023/11/08 06:08:08;;;;;;;3.07;1.13;;;5.30;99.90;;;;;;5057998;28;20032;-78
2023/11/08 06:10:34;;;;;;;2.30;1.30;;;5.30;99.90;;;;;;5059360;28;20096;-78
2023/11/08 06:13:00;;;;;;;3.27;1.47;;;5.30;99.90;;;;;;5059020;28;20033;-78
2023/11/08 06:15:25;;;;;;;3.30;1.33;;;5.30;99.90;;;;;;5060367;28;20406;-78
2023/11/08 06:17:52;;;;;;;3.87;1.30;;;5.30;99.90;;;;;;5061485;28;20025;-78
2023/11/08 06:20:19;;;;;;;2.50;1.20;;;5.30;99.90;;;;;;5060433;28;20036;-79
2023/11/08 06:22:44;;;;;;;4.07;1.40;;;5.30;99.90;;;;;;5069773;28;20479;-80
2023/11/08 06:25:10;;;;;;;7.87;1.50;;;5.40;99.90;;;;;;5069393;28;20032;-81
2023/11/08 06:27:37;;;;;;;6.03;1.93;;;5.40;99.90;;;;;;5070705;28;20146;-81
2023/11/08 06:30:03;;;;;;;3.57;1.27;;;5.40;99.90;;;;;;5068058;28;20048;-80
2023/11/08 06:32:28;;;;;;;3.93;1.30;;;5.50;99.90;;;;;;5068568;28;20029;-80
2023/11/08 06:35:00;;;;;;;7.33;1.67;;;5.50;99.90;;;;;;5064337;28;20073;-80
2023/11/08 06:37:29;;;;;;;6.10;1.40;;;5.60;99.90;;;;;;5069462;28;20039;-80
2023/11/08 06:39:55;;;;;;;3.00;1.30;;;5.60;99.90;;;;;;5068437;28;20033;-80
2023/11/08 06:42:21;;;;;;;3.40;1.40;;;5.70;99.90;;;;;;5063487;28;20025;-79
2023/11/08 06:44:47;;;;;;;5.80;1.70;;;5.70;99.90;;;;;;5063902;28;20024;-80
2023/11/08 06:47:13;;;;;;;3.27;1.23;;;5.80;99.90;;;;;;5060768;28;20074;-79
2023/11/08 06:49:38;;;;;;;5.97;1.50;;;5.80;99.90;;;;;;5048554;28;20032;-80
2023/11/08 06:52:05;;;;;;;3.73;1.50;;;5.90;99.90;;;;;;5050922;28;20043;-81
2023/11/08 06:54:32;;;;;;;5.13;2.40;;;5.90;99.90;;;;;;5052925;28;20036;-80
2023/11/08 06:56:58;;;;;;;3.90;1.40;;;6.00;99.90;;;;;;5055207;28;20036;-81
2023/11/08 06:59:24;;;;;;;5.27;1.60;;;6.00;99.90;;;;;;5052088;28;20055;-81
2023/11/08 07:01:50;;;;;;;5.40;1.60;;;6.10;99.90;;;;;;5051213;28;20029;-81
2023/11/08 07:04:15;;;;;;;3.97;1.67;;;6.10;99.90;;;;;;5061808;28;20028;-81
2023/11/08 07:06:41;;;;;;;5.03;1.87;;;6.20;99.90;;;;;;5057919;28;20029;-81
2023/11/08 07:09:08;;;;;;;6.63;1.60;;;6.30;99.90;;;;;;5059807;28;20035;-81
2023/11/08 07:11:35;;;;;;;4.90;1.43;;;6.30;99.90;;;;;;5058645;28;20045;-82
2023/11/08 07:14:00;;;;;;;3.80;1.40;;;6.40;99.90;;;;;;5057949;28;20020;-81
2023/11/08 07:16:26;;;;;;;5.30;1.60;;;6.40;99.90;;;;;;5059906;28;20025;-81
2023/11/08 07:18:52;;;;;;;5.73;1.73;;;6.50;99.90;;;;;;5059042;28;20032;-81
2023/11/08 07:21:20;;;;;;;4.97;1.40;;;6.60;99.90;;;;;;5058910;28;20029;-82
2023/11/08 07:23:47;;;;;;;6.93;1.30;;;6.60;99.90;;;;;;5059687;28;20021;-82
2023/11/08 07:26:15;;;;;;;4.83;1.40;;;6.70;99.90;;;;;;5054790;28;20028;-82
2023/11/08 07:28:44;;;;;;;4.77;1.47;;;6.70;99.90;;;;;;5055524;28;20029;-81
2023/11/08 07:31:10;;;;;;;4.10;1.40;;;6.80;99.90;;;;;;5055615;28;20104;-82
2023/11/08 07:33:36;;;;;;;3.70;1.43;;;6.80;99.90;;;;;;5057176;28;20044;-81
2023/11/08 07:36:03;;;;;;;4.50;1.60;;;6.90;99.90;;;;;;5055759;28;20096;-81
2023/11/08 07:38:28;;;;;;;2.73;1.47;;;6.90;99.90;;;;;;5057641;28;20027;-81
2023/11/08 07:40:55;;;;;;;5.83;1.40;;;7.00;99.90;;;;;;5064812;28;20394;-82
2023/11/08 07:43:20;;;;;;;8.23;1.63;;;7.00;99.90;;;;;;5065985;28;20040;-82
2023/11/08 07:45:48;;;;;;;5.23;1.20;;;7.10;99.90;;;;;;5064712;28;20403;-82
2023/11/08 07:48:14;;;;;;;5.67;1.37;;;7.20;99.90;;;;;;5061371;28;20052;-82
2023/11/08 07:50:40;;;;;;;6.67;1.27;;;7.30;99.90;;;;;;5058420;28;20033;-82
2023/11/08 07:53:06;;;;;;;7.03;2.70;;;7.40;99.90;;;;;;5041227;28;20024;-82
2023/11/08 07:55:31;;;;;;;4.57;1.40;;;7.40;99.90;;;;;;5059596;28;20027;-82
2023/11/08 07:57:57;;;;;;;4.53;1.50;;;7.50;99.90;;;;;;5057658;28;20021;-81
2023/11/08 08:00:24;;;;;;;6.47;1.70;;;7.50;99.90;;;;;;5058902;28;20519;-82
2023/11/08 08:02:50;;;;;;;4.27;1.30;;;7.60;99.90;;;;;;5063039;28;20093;-81
2023/11/08 08:05:16;;;;;;;5.17;1.30;;;7.50;99.90;;;;;;5062821;28;20033;-81
2023/11/08 08:07:41;;;;;;;5.20;1.60;;;7.50;99.90;;;;;;5061389;28;20086;-81
2023/11/08 08:10:08;;;;;;;4.77;1.30;;;7.60;99.90;;;;;;5059671;28;20752;-81
2023/11/08 08:12:33;;;;;;;3.37;1.10;;;7.70;99.90;;;;;;5058195;28;20095;-81
2023/11/08 08:14:59;;;;;;;5.63;1.30;;;7.70;99.90;;;;;;5059993;28;20017;-81
2023/11/08 08:17:25;;;;;;;5.60;2.10;;;7.80;99.90;;;;;;5057887;28;20021;-82
2023/11/08 08:19:53;;;;;;;4.73;1.10;;;7.90;99.90;;;;;;5055706;28;20553;-83
2023/11/08 08:22:20;;;;;;;2.27;1.40;;;7.90;99.90;;;;;;5057883;28;20123;-81
2023/11/08 08:24:47;;;;;;;4.67;1.57;;;7.90;99.90;;;;;;5057675;28;20037;-82
2023/11/08 08:27:12;;;;;;;4.27;1.20;;;7.90;99.90;;;;;;5059563;28;20503;-82
2023/11/08 08:29:39;;;;;;;4.43;1.07;;;8.00;99.90;;;;;;5056600;28;20115;-82
2023/11/08 08:32:04;;;;;;;3.10;1.00;;;8.10;99.90;;;;;;5057995;28;20955;-82
2023/11/08 08:34:30;;;;;;;3.90;1.60;;;8.10;99.90;;;;;;5057489;28;20104;-81
2023/11/08 08:36:56;;;;;;;3.63;0.90;;;8.10;99.90;;;;;;5057168;28;20078;-82
2023/11/08 08:39:24;;;;;;;3.07;0.93;;;8.10;99.90;;;;;;5056860;28;21467;-81
2023/11/08 08:41:50;;;;;;;2.80;1.10;;;8.10;99.90;;;;;;5055590;28;20056;-83
2023/11/08 08:44:15;;;;;;;4.80;1.20;;;8.10;99.90;;;;;;5058324;28;20052;-82
2023/11/08 08:46:43;;;;;;;7.73;1.27;;;8.20;99.90;;;;;;5057831;28;20028;-82
2023/11/08 08:49:09;;;;;;;3.93;1.37;;;8.30;99.90;;;;;;5058493;28;20035;-81
2023/11/08 08:51:35;;;;;;;2.77;1.50;;;8.30;99.90;;;;;;5057200;28;20109;-81
2023/11/08 08:54:00;;;;;;;3.57;0.97;;;8.40;99.90;;;;;;5057973;28;20070;-82
2023/11/08 08:56:27;;;;;;;1.90;1.10;;;8.40;99.90;;;;;;5058165;28;20025;-81
2023/11/08 08:58:53;;;;;;;4.30;1.30;;;8.40;99.90;;;;;;5059638;28;20495;-81
2023/11/08 09:01:19;;;;;;;4.93;1.40;;;8.50;99.90;;;;;;5058673;28;20094;-81
2023/11/08 09:03:45;;;;;;;3.47;1.10;;;8.50;99.90;;;;;;5058601;28;20045;-81
2023/11/08 09:06:11;;;;;;;4.13;1.20;;;8.50;99.90;;;;;;5057942;28;20066;-82
2023/11/08 09:08:37;;;;;;;3.83;1.00;;;8.60;99.90;;;;;;5058754;28;20041;-81
2023/11/08 09:11:03;;;;;;;3.17;1.10;;;8.60;99.90;;;;;;5059576;28;20036;-81
2023/11/08 09:13:29;;;;;;;3.00;1.10;;;8.60;99.90;;;;;;5057575;28;20088;-81
2023/11/08 09:15:55;;;;;;;2.43;0.90;;;8.70;99.90;;;;;;5058332;28;20029;-82
2023/11/08 09:18:21;;;;;;;2.77;1.10;;;8.90;99.90;;;;;;5058250;28;20032;-81
2023/11/08 09:20:48;;;;;;;4.70;1.30;;;8.90;99.90;;;;;;5057518;28;20774;-81
2023/11/08 09:23:13;;;;;;;6.27;1.30;;;9.00;99.90;;;;;;5057095;28;20036;-81
2023/11/08 09:25:39;;;;;;;3.40;1.00;;;9.10;99.90;;;;;;5056398;28;20033;-82
2023/11/08 09:28:04;;;;;;;5.97;1.23;;;9.20;99.90;;;;;;5057467;28;20055;-82
2023/11/08 09:30:33;;;;;;;6.00;1.10;;;9.30;99.90;;;;;;5056974;28;20039;-82
2023/11/08 09:32:58;;;;;;;5.63;1.10;;;9.30;99.90;;;;;;5057976;28;20198;-82
2023/11/08 09:35:24;;;;;;;3.43;1.10;;;9.30;99.90;;;;;;5059778;28;20040;-82
2023/11/08 09:37:50;;;;;;;6.43;1.43;;;9.30;99.90;;;;;;5061715;28;20052;-81
2023/11/08 09:40:16;;;;;;;6.17;1.50;;;9.30;99.90;;;;;;5060756;28;20029;-81
2023/11/08 09:42:42;;;;;;;5.97;1.20;;;9.30;99.90;;;;;;5058614;28;20078;-82
2023/11/08 09:45:11;;;;;;;3.20;1.13;;;9.40;99.90;;;;;;5058501;28;20036;-81
2023/11/08 09:47:37;;;;;;;6.57;1.30;;;9.40;99.90;;;;;;5059525;28;20028;-82
2023/11/08 09:50:08;;;;;;;4.60;1.20;;;9.40;99.90;;;;;;5057053;28;21374;-80
2023/11/08 09:52:38;;;;;;;3.17;1.07;;;9.40;99.90;;;;;;5058671;28;20037;-82
2023/11/08 09:55:05;;;;;;;4.80;1.30;;;9.40;99.90;;;;;;5057224;28;20122;-82
2023/11/08 09:57:34;;;;;;;3.57;1.03;;;9.50;99.90;;;;;;5057550;28;20082;-83
2023/11/08 10:00:00;;;;;;;5.27;1.20;;;9.60;99.90;;;;;;5060076;28;20036;-81
2023/11/08 10:02:27;;;;;;;3.20;1.10;;;9.60;99.90;;;;;;5066535;28;20039;-81
2023/11/08 10:04:53;;;;;;;2.40;1.00;;;9.60;99.90;;;;;;5065207;28;20024;-82
2023/11/08 10:07:19;;;;;;;3.17;1.10;;;9.60;99.90;;;;;;5064404;28;20041;-82
2023/11/08 10:09:44;;;;;;;3.53;1.00;;;9.70;99.90;;;;;;5061127;28;20028;-83
2023/11/08 10:12:11;;;;;;;4.03;1.10;;;9.70;99.90;;;;;;5059465;28;20059;-82
2023/11/08 10:14:43;;;;;;;5.53;1.23;;;9.70;99.90;;;;;;5058977;28;20053;-82
2023/11/08 10:17:08;;;;;;;5.33;3.07;;;9.70;99.90;;;;;;5060757;28;20036;-82
2023/11/08 10:19:43;;;;;;;4.37;2.00;;;9.70;99.90;;;;;;5059092;28;20071;-82
2023/11/08 10:22:19;;;;;;;2.63;1.40;;;9.60;99.90;;;;;;5061101;28;20495;-83
2023/11/08 10:24:59;;;;;;;2.47;1.37;;;9.50;99.90;;;;;;5059290;28;21156;-82
2023/11/08 10:27:25;;;;;;;3.57;1.70;;;9.40;99.90;;;;;;5060584;28;20036;-82
2023/11/08 10:29:51;;;;;;;3.40;1.40;;;9.40;99.90;;;;;;5059828;28;20031;-83
2023/11/08 10:32:24;;;;;;;2.33;1.20;;;9.40;99.90;;;;;;5050222;28;20043;-84
2023/11/08 10:34:51;;;;;;;4.57;1.50;;;9.40;99.90;;;;;;5051256;28;20064;-83
2023/11/08 10:37:27;;;;;;;3.47;1.50;;;9.40;99.90;;;;;;5051946;28;20032;-82
2023/11/08 10:39:59;;;;;;;2.27;1.17;;;9.50;99.90;;;;;;5053974;28;20091;-83
2023/11/08 10:42:25;;;;;;;4.87;1.30;;;9.70;99.90;;;;;;5057130;28;20040;-82
2023/11/08 10:44:53;;;;;;;7.03;1.20;;;9.80;99.90;;;;;;5065822;28;20044;-81
2023/11/08 10:47:19;;;;;;;3.17;1.13;;;9.90;99.90;;;;;;5059917;28;20078;-83
2023/11/08 10:49:48;;;;;;;2.73;1.10;;;10.00;99.90;;;;;;5057072;28;20025;-82
2023/11/08 10:52:13;;;;;;;3.53;1.43;;;10.10;99.90;;;;;;5059152;28;20437;-83
2023/11/08 10:54:39;;;;;;;3.40;1.10;;;10.20;99.90;;;;;;5057580;28;20025;-84
2023/11/08 10:57:08;;;;;;;3.43;1.20;;;10.30;99.90;;;;;;5057439;28;20025;-83
2023/11/08 10:59:36;;;;;;;4.30;1.10;;;10.40;99.90;;;;;;5057633;28;20024;-82
2023/11/08 11:02:28;;;;;;;4.03;1.63;;;10.40;99.90;;;;;;5060739;28;20165;-80
2023/11/08 11:05:00;;;;;;;3.40;1.30;;;10.40;99.90;;;;;;5061755;28;20040;-81
2023/11/08 11:07:27;;;;;;;3.80;1.00;;;10.60;99.90;;;;;;5064867;28;20033;-81
2023/11/08 11:09:54;;;;;;;4.90;1.10;;;10.70;99.90;;;;;;5063256;28;20028;-80
2023/11/08 11:12:31;;;;;;;3.60;1.10;;;10.70;99.90;;;;;;5062634;28;20044;-81
2023/11/08 11:15:03;;;;;;;1.97;0.90;;;10.80;99.90;;;;;;5057744;28;20064;-83
2023/11/08 11:17:32;;;;;;;2.50;1.30;;;10.90;99.90;;;;;;5043955;28;20025;-82
2023/11/08 11:20:02;;;;;;;2.70;0.93;;;11.00;99.90;;;;;;5048159;28;20036;-83
2023/11/08 11:22:28;;;;;;;3.43;1.10;;;11.10;99.90;;;;;;5048931;28;20033;-84
2023/11/08 11:24:56;;;;;;;2.50;1.27;;;11.10;99.90;;;;;;5045365;28;20415;-82
2023/11/08 11:27:31;;;;;;;3.83;1.50;;;11.20;99.90;;;;;;5045495;28;21193;-83
2023/11/08 11:30:26;;;;;;;;;;;11.30;99.90;;;;;;5046794;28;20196;-83
2023/11/08 11:32:53;;;;;;;4.57;1.47;;;11.40;99.90;;;;;;5048084;28;19920;-83
2023/11/08 11:35:19;;;;;;;2.40;1.13;;;11.60;99.90;;;;;;5045343;28;20032;-83
2023/11/08 11:38:13;;;;;;;1.98;1.00;;;11.70;99.90;;;;;;5046685;28;20028;-83
2023/11/08 11:40:42;;;;;;;3.67;0.93;;;11.70;99.90;;;;;;5045839;28;21425;-84
2023/11/08 11:43:29;;;;;;;3.83;0.98;;;11.70;99.90;;;;;;5045460;28;20032;-84
2023/11/08 11:45:57;;;;;;;2.28;1.00;;;11.70;99.90;;;;;;5046536;28;20032;-83
2023/11/08 11:48:22;;;;;;;2.33;0.80;;;11.70;99.90;;;;;;5046015;28;20055;-83
2023/11/08 11:50:48;;;;;;;3.20;1.08;;;11.70;99.90;;;;;;5043388;28;20125;-84
2023/11/08 11:53:15;;;;;;;10.82;4.70;;;11.80;99.90;;;;;;5044719;28;20056;-83
2023/11/08 11:55:42;;;;;;;1.65;0.93;;;11.90;99.90;;;;;;5044564;28;20059;-85
2023/11/08 11:58:11;;;;;;;2.22;1.00;;;11.90;99.90;;;;;;5046357;28;20029;-85
2023/11/08 12:00:37;;;;;;;2.30;1.23;;;11.90;99.90;;;;;;5046157;28;20024;-84
2023/11/08 12:03:04;;;;;;;1.85;0.80;;;11.90;99.90;;;;;;5046419;28;20047;-85
2023/11/08 12:05:30;;;;;;;4.18;1.10;;;11.90;99.90;;;;;;5043241;28;20055;-84
2023/11/08 12:07:55;;;;;;;3.42;1.23;;;11.90;99.90;;;;;;5045425;28;20067;-85
2023/11/08 12:10:26;;;;;;;1.23;0.95;;;12.00;99.90;;;;;;5045314;28;20457;-86
2023/11/08 12:12:52;;;;;;;2.60;0.98;;;12.30;99.90;;;;;;5045624;28;20155;-84
2023/11/08 12:15:22;;;;;;;2.85;1.25;;;12.30;99.90;;;;;;5044053;28;20056;-84
2023/11/08 12:17:51;;;;;;;3.95;0.90;;;12.30;99.90;;;;;;5044368;28;20029;-85
2023/11/08 12:20:20;;;;;;;2.05;1.00;;;12.30;99.90;;;;;;5047050;28;20027;-83
2023/11/08 12:22:50;;;;;;;2.88;1.00;;;12.40;99.90;;;;;;5045243;28;20044;-85
2023/11/08 12:25:22;;;;;;;3.00;1.10;;;12.50;99.90;;;;;;5044886;28;20025;-84
2023/11/08 12:27:50;;;;;;;2.42;0.95;;;12.50;99.90;;;;;;5046251;28;20036;-85
2023/11/08 12:30:16;;;;;;;1.83;0.85;;;12.50;99.90;;;;;;5045100;28;20773;-85
2023/11/08 12:32:42;;;;;;;4.22;1.10;;;12.60;99.90;;;;;;5044536;28;20028;-85
2023/11/08 12:35:09;;;;;;;4.35;0.98;;;12.60;99.90;;;;;;5044428;28;20024;-87
2023/11/08 12:37:36;;;;;;;4.10;1.20;;;12.60;99.90;;;;;;5045945;28;20029;-84
2023/11/08 12:40:24;;;;;;;4.05;0.90;;;12.60;99.90;;;;;;5047281;28;20025;-84
2023/11/08 12:42:50;;;;;;;5.97;1.42;;;12.50;99.90;;;;;;5045049;28;20032;-85
2023/11/08 12:45:32;;;;;;;3.25;1.05;;;12.20;99.90;;;;;;5043962;28;20084;-85
2023/11/08 12:48:04;;;;;;;2.53;0.90;;;12.00;99.90;;;;;;5054484;28;20117;-84
2023/11/08 12:50:35;;;;;;;1.85;0.85;;;11.90;99.90;;;;;;5054372;28;20025;-85
2023/11/08 12:53:03;;;;;;;4.50;1.17;;;11.90;99.90;;;;;;5038850;28;20070;-85